KB2KRJ Weather Reports


Display with metric or nautical units.
time (UTC)temp
F
wind
direction
speed
MPH
gust
MPH
rain 1hr
in
rain 24hr
in
rain mn
in
humidity
%
barometer
mb
20201128173029 48 344 1.0 6.0 0.00 0.01 0.00 70 1014.8
20201128171600 47 209 0.0 6.0 0.00 0.01 0.00 69 1014.8
20201128170032 48 96 2.0 7.0 0.00 0.01 0.00 70 1014.7
20201128164541 47 176 0.0 6.0 0.00 0.01 0.00 75 1014.7
20201128163045 47 177 1.0 4.0 0.00 0.01 0.00 77 1014.8
20201128161526 46 155 1.0 3.0 0.00 0.01 0.00 82 1014.8
20201128160032 46 355 0.0 5.0 0.00 0.01 0.00 86 1014.9
20201128154522 45 40 0.0 0.0 0.00 0.01 0.00 89 1015.0
20201128153016 45 41 0.0 0.0 0.00 0.01 0.00 92 1015.2
20201128151519 45 41 0.0 0.0 0.00 0.01 0.00 95 1015.3
20201128150022 44 34 0.0 0.0 0.00 0.01 0.00 96 1015.1
20201128144508 44 36 0.0 0.0 0.00 0.01 0.00 97 1014.8
20201128143135 43 34 0.0 0.0 0.00 0.01 0.00 97 1014.9
20201128141754 42 34 0.0 0.0 0.00 0.01 0.00 97 1015.0
20201128140131 41 34 0.0 0.0 0.00 0.01 0.00 97 1015.0
20201128134808 40 34 0.0 0.0 0.00 0.01 0.00 97 1015.0
20201128133244 39 34 0.0 0.0 0.00 0.01 0.00 96 1015.1
20201128131617 40 34 0.0 0.0 0.00 0.01 0.00 96 1015.1
20201128130118 40 34 0.0 0.0 0.00 0.01 0.00 96 1015.0
20201128124625 40 35 0.0 0.0 0.00 0.01 0.00 96 1014.9
20201128123222 40 35 0.0 0.0 0.00 0.01 0.00 96 1015.0
20201128121629 40 36 0.0 0.0 0.00 0.01 0.00 96 1015.0
20201128120136 40 36 0.0 0.0 0.00 0.01 0.00 96 1015.1
20201128114725 40 36 0.0 0.0 0.00 0.01 0.00 96 1015.0
20201128113224 41 36 0.0 0.0 0.00 0.01 0.00 96 1014.8
20201128111714 41 36 0.0 0.0 0.00 0.01 0.00 96 1014.7
20201128110112 41 36 0.0 0.0 0.00 0.01 0.00 96 1014.8
20201128104656 41 36 0.0 0.0 0.00 0.01 0.00 96 1014.9
20201128103245 41 36 0.0 0.0 0.00 0.01 0.00 96 1014.9
20201128101552 41 36 0.0 0.0 0.00 0.01 0.00 96 1014.8
20201128100224 41 36 0.0 0.0 0.00 0.01 0.00 96 1014.8
20201128094617 41 36 0.0 0.0 0.00 0.02 0.00 96 1014.8
20201128093147 41 36 0.0 0.0 0.00 0.02 0.00 96 1014.7
20201128091654 41 36 0.0 0.0 0.00 0.02 0.00 96 1014.6
20201128090049 41 36 0.0 2.0 0.00 0.02 0.00 96 1014.5
20201128084614 41 38 0.0 0.0 0.00 0.02 0.00 96 1014.4
20201128083053 41 38 0.0 0.0 0.00 0.02 0.00 96 1014.4
20201128081557 41 38 0.0 0.0 0.00 0.02 0.00 96 1014.6
20201128080046 41 38 0.0 0.0 0.00 0.02 0.00 96 1014.7
20201128074548 41 38 0.0 0.0 0.00 0.02 0.00 96 1014.8
20201128073145 41 38 0.0 0.0 0.00 0.02 0.00 96 1014.9
20201128071615 41 38 0.0 0.0 0.00 0.02 0.00 96 1014.9
20201128070057 41 38 0.0 0.0 0.00 0.02 0.00 96 1015.0
20201128064602 42 38 0.0 0.0 0.00 0.02 0.00 96 1015.0
20201128063109 42 38 0.0 0.0 0.00 0.02 0.00 96 1015.1
20201128061605 42 38 0.0 0.0 0.00 0.02 0.00 96 1015.2
20201128060047 42 38 0.0 0.0 0.00 0.02 0.00 96 1015.4
20201128054603 42 38 0.0 0.0 0.00 0.02 0.00 96 1015.4
20201128053041 42 38 0.0 0.0 0.00 0.02 0.00 96 1015.5
20201128051544 42 38 0.0 0.0 0.00 0.02 0.00 96 1015.6
20201128050058 42 38 0.0 0.0 0.00 0.02 0.00 96 1015.8
20201128044639 42 38 0.0 0.0 0.00 0.02 0.02 96 1015.8
20201128043127 42 38 0.0 0.0 0.00 0.02 0.02 96 1016.0
20201128041532 42 38 0.0 0.0 0.00 0.02 0.02 96 1016.1
20201128040112 42 38 0.0 0.0 0.00 0.02 0.02 96 1016.2
20201128034612 42 38 0.0 0.0 0.00 0.02 0.02 96 1016.4
20201128033055 42 38 0.0 0.0 0.00 0.02 0.02 96 1016.2
20201128031625 42 38 0.0 0.0 0.00 0.02 0.02 96 1016.0
20201128030050 43 38 0.0 0.0 0.00 0.02 0.02 96 1016.0
20201128024523 43 38 0.0 0.0 0.00 0.02 0.02 95 1016.3
20201128023021 43 38 0.0 0.0 0.00 0.02 0.02 95 1016.3
20201128021519 43 38 0.0 0.0 0.00 0.02 0.02 95 1016.2
20201128020045 43 38 0.0 0.0 0.00 0.02 0.02 95 1016.4
20201128014523 43 38 0.0 0.0 0.00 0.02 0.02 95 1016.6
20201128013032 43 38 0.0 0.0 0.00 0.02 0.02 95 1016.7
20201128011513 43 38 0.0 0.0 0.00 0.02 0.02 95 1016.7
20201128010023 44 38 0.0 0.0 0.00 0.02 0.02 95 1016.8
20201128004521 44 38 0.0 0.0 0.00 0.02 0.02 95 1016.8
20201128003023 44 38 0.0 0.0 0.00 0.02 0.02 94 1016.7
20201128001507 44 38 0.0 0.0 0.01 0.02 0.02 94 1016.4
20201128000010 44 38 0.0 0.0 0.01 0.02 0.02 94 1016.5
20201127234516 44 38 0.0 0.0 0.01 0.02 0.02 94 1016.5
20201127233134 44 38 0.0 0.0 0.01 0.02 0.02 94 1016.4
20201127231759 45 38 0.0 0.0 0.00 0.01 0.01 93 1016.5
20201127230150 45 38 0.0 0.0 0.00 0.01 0.01 93 1016.5
20201127224637 45 38 0.0 0.0 0.00 0.01 0.01 92 1016.6
20201127223149 45 38 0.0 0.0 0.00 0.01 0.01 91 1016.6
20201127221631 46 38 0.0 0.0 0.00 0.01 0.01 90 1016.7
20201127220153 46 38 0.0 0.0 0.00 0.01 0.01 90 1016.8
20201127214616 46 38 0.0 0.0 0.00 0.01 0.01 90 1016.7
20201127213254 47 38 0.0 0.0 0.00 0.01 0.01 89 1016.6
20201127211652 47 38 0.0 0.0 0.00 0.01 0.01 88 1016.6
20201127210131 47 38 0.0 0.0 0.00 0.01 0.01 88 1016.6
20201127204704 47 38 0.0 0.0 0.00 0.01 0.01 87 1016.6
20201127203149 48 38 0.0 0.0 0.00 0.01 0.01 86 1016.8
20201127201651 48 38 0.0 0.0 0.00 0.01 0.01 85 1016.7
20201127200206 49 38 0.0 0.0 0.00 0.01 0.01 82 1016.7
20201127194713 49 53 0.0 2.0 0.00 0.01 0.01 81 1016.7
20201127193152 50 117 0.0 0.0 0.00 0.01 0.01 82 1016.7
20201127191618 51 117 0.0 0.0 0.00 0.01 0.01 79 1016.7
20201127190115 51 117 0.0 2.0 0.00 0.01 0.01 78 1016.7
20201127184638 51 42 0.0 1.0 0.00 0.01 0.01 80 1016.8
20201127183104 51 41 0.0 3.0 0.00 0.01 0.01 80 1016.9
20201127181549 50 48 0.0 2.0 0.00 0.01 0.01 83 1017.0
20201127180332 50 51 0.0 3.0 0.00 0.01 0.01 83 1017.2
20201127174608 50 49 0.0 4.0 0.00 0.01 0.01 83 1017.3